createdAt,value
2019-03-11T00:00:15.943Z,2.55
2019-03-11T00:02:45.454Z,2.87
2019-03-11T00:05:15.008Z,2.25
2019-03-11T00:07:44.544Z,2.45
2019-03-11T00:10:13.993Z,3.30
2019-03-11T00:12:43.470Z,3.42
2019-03-11T00:15:13.104Z,2.25
2019-03-11T00:17:42.546Z,6.87
2019-03-11T00:20:12.086Z,2.33
2019-03-11T00:22:42.045Z,2.25
2019-03-11T00:25:11.711Z,3.30
2019-03-11T00:27:41.192Z,3.58
2019-03-11T00:30:11.133Z,3.35
2019-03-11T00:32:40.582Z,1.87
2019-03-11T00:35:11.523Z,1.75
2019-03-11T00:37:41.156Z,2.40
2019-03-11T00:40:10.757Z,2.37
2019-03-11T00:42:40.263Z,3.85
2019-03-11T00:45:11.168Z,3.77
2019-03-11T00:47:40.647Z,5.00
2019-03-11T00:50:10.785Z,3.58
2019-03-11T00:52:40.458Z,4.05
2019-03-11T00:55:10.228Z,2.47
2019-03-11T00:57:39.662Z,4.05
2019-03-11T01:00:18.592Z,2.02
2019-03-11T01:02:48.053Z,4.92
2019-03-11T01:05:17.518Z,3.50
2019-03-11T01:07:47.042Z,1.70
2019-03-11T01:10:16.650Z,2.00
2019-03-11T01:12:46.231Z,6.87
2019-03-11T01:15:15.697Z,2.87
2019-03-11T01:17:45.160Z,2.67
2019-03-11T01:20:14.893Z,1.92
2019-03-11T01:22:45.206Z,2.00
2019-03-11T01:25:15.201Z,2.83
2019-03-11T01:27:44.769Z,2.62
2019-03-11T01:30:14.527Z,4.12
2019-03-11T01:32:44.393Z,2.60
2019-03-11T01:35:13.977Z,2.85
2019-03-11T01:37:43.441Z,1.72
2019-03-11T01:40:13.816Z,2.37
2019-03-11T01:42:43.284Z,2.35
2019-03-11T01:45:14.401Z,2.35
2019-03-11T01:47:43.956Z,2.12
2019-03-11T01:50:13.910Z,4.28
2019-03-11T01:52:43.474Z,3.20
2019-03-11T01:55:13.051Z,2.47
2019-03-11T01:57:42.478Z,3.05
2019-03-11T02:00:13.775Z,2.00
2019-03-11T02:02:43.209Z,2.75
2019-03-11T02:05:13.175Z,1.60
2019-03-11T02:07:42.736Z,2.45
2019-03-11T02:10:13.858Z,2.62
2019-03-11T02:12:43.318Z,2.37
2019-03-11T02:15:14.026Z,3.05
2019-03-11T02:17:43.541Z,2.75
2019-03-11T02:20:14.094Z,2.33
2019-03-11T02:22:44.645Z,2.60
2019-03-11T02:25:14.954Z,1.75
2019-03-11T02:27:43.144Z,2.30
2019-03-11T02:30:11.857Z,1.82
2019-03-11T02:32:41.383Z,2.17
2019-03-11T02:35:11.043Z,1.65
2019-03-11T02:37:40.620Z,2.02
2019-03-11T02:40:11.100Z,1.87
2019-03-11T02:42:40.652Z,2.25
2019-03-11T02:45:10.636Z,2.02
2019-03-11T02:47:40.193Z,7.25
2019-03-11T02:50:09.837Z,1.80
2019-03-11T02:52:39.299Z,2.08
2019-03-11T02:55:09.064Z,2.20
2019-03-11T02:57:38.485Z,2.15
2019-03-11T03:00:09.130Z,1.25
2019-03-11T03:03:03.840Z,2.33
2019-03-11T03:05:52.253Z,2.12
2019-03-11T03:08:21.795Z,1.60
2019-03-11T03:10:51.260Z,2.08
2019-03-11T03:13:20.690Z,1.52
2019-03-11T03:15:50.249Z,2.22
2019-03-11T03:18:19.652Z,1.10
2019-03-11T03:20:49.147Z,3.72
2019-03-11T03:23:18.732Z,1.80
2019-03-11T03:25:48.270Z,1.45
2019-03-11T03:28:17.726Z,2.02
2019-03-11T03:30:47.264Z,1.87
2019-03-11T03:33:16.707Z,1.65
2019-03-11T03:35:46.305Z,1.40
2019-03-11T03:38:29.595Z,2.08
2019-03-11T03:40:47.081Z,2.52
2019-03-11T03:43:16.553Z,3.05
2019-03-11T03:45:46.193Z,2.40
2019-03-11T03:48:16.120Z,1.40
2019-03-11T03:50:45.644Z,1.62
2019-03-11T03:53:15.134Z,2.20
2019-03-11T03:55:44.684Z,2.27
2019-03-11T03:58:14.122Z,1.30
2019-03-11T04:00:43.574Z,2.05
2019-03-11T04:03:13.036Z,1.25
2019-03-11T04:05:42.608Z,1.75
2019-03-11T04:08:12.158Z,1.20
2019-03-11T04:10:41.670Z,1.00
2019-03-11T04:13:11.152Z,1.30
2019-03-11T04:15:40.674Z,1.22
2019-03-11T04:18:10.694Z,0.98
2019-03-11T04:20:40.322Z,1.00
2019-03-11T04:23:09.819Z,1.42
2019-03-11T04:25:39.266Z,2.15
2019-03-11T04:28:08.818Z,1.55
2019-03-11T04:30:38.382Z,2.60
2019-03-11T04:33:07.900Z,1.27
2019-03-11T04:35:37.459Z,1.30
2019-03-11T04:38:06.943Z,1.20
2019-03-11T04:40:36.396Z,1.55
2019-03-11T04:43:05.965Z,0.93
2019-03-11T04:45:35.442Z,1.47
2019-03-11T04:48:04.888Z,1.92
2019-03-11T04:50:34.461Z,1.62
2019-03-11T04:53:03.964Z,0.70
2019-03-11T04:55:33.367Z,3.02
2019-03-11T04:58:02.935Z,1.62
2019-03-11T05:00:32.606Z,1.70
2019-03-11T05:03:02.053Z,2.65
2019-03-11T05:05:31.576Z,1.67
2019-03-11T05:08:01.101Z,1.45
2019-03-11T05:10:30.607Z,2.10
2019-03-11T05:13:00.139Z,1.67
2019-03-11T05:15:29.609Z,2.30
2019-03-11T05:17:59.120Z,1.30
2019-03-11T05:20:28.633Z,1.87
2019-03-11T05:22:58.097Z,5.37
2019-03-11T05:25:27.578Z,1.57
2019-03-11T05:27:57.100Z,1.00
2019-03-11T05:30:26.765Z,1.05
2019-03-11T05:32:56.238Z,2.45
2019-03-11T05:35:25.757Z,2.42
2019-03-11T05:37:55.298Z,0.98
2019-03-11T05:40:24.790Z,1.45
2019-03-11T05:42:54.320Z,1.65
2019-03-11T05:45:23.831Z,1.90
2019-03-11T05:47:53.427Z,1.40
2019-03-11T05:50:23.075Z,1.82
2019-03-11T05:52:52.552Z,2.05
2019-03-11T05:55:22.037Z,1.07
2019-03-11T05:57:51.701Z,1.30
2019-03-11T06:00:24.290Z,1.75
2019-03-11T06:02:53.732Z,1.00
2019-03-11T06:05:23.242Z,1.57
2019-03-11T06:07:52.681Z,1.70
2019-03-11T06:10:22.132Z,3.30
2019-03-11T06:12:51.586Z,1.90
2019-03-11T06:15:21.134Z,3.12
2019-03-11T06:17:50.836Z,3.37
2019-03-11T06:20:48.666Z,3.45
2019-03-11T06:23:18.626Z,1.70
2019-03-11T06:25:48.427Z,1.85
2019-03-11T06:28:17.841Z,47.45
2019-03-11T06:30:47.460Z,5.40
2019-03-11T06:33:16.932Z,16.87
2019-03-11T06:35:46.398Z,10.88
2019-03-11T06:38:15.947Z,6.25
2019-03-11T06:40:46.102Z,9.15
2019-03-11T06:43:16.858Z,10.65
2019-03-11T06:45:46.382Z,13.08
2019-03-11T06:48:16.811Z,6.45
2019-03-11T06:50:46.264Z,7.05
2019-03-11T06:53:15.913Z,10.43
2019-03-11T06:55:45.479Z,7.62
2019-03-11T06:58:14.943Z,7.58
2019-03-11T07:00:44.521Z,4.78
2019-03-11T07:03:14.012Z,4.53
2019-03-11T07:05:43.447Z,7.80
2019-03-11T07:08:12.954Z,5.35
2019-03-11T07:10:42.493Z,8.60
2019-03-11T07:13:11.951Z,4.65
2019-03-11T07:15:41.818Z,9.78
2019-03-11T07:18:11.238Z,3.62
2019-03-11T07:20:40.738Z,4.12
2019-03-11T07:23:10.274Z,4.47
2019-03-11T07:25:39.872Z,4.85
2019-03-11T07:28:09.317Z,4.08
2019-03-11T07:30:38.834Z,4.97
2019-03-11T07:33:08.489Z,3.90
2019-03-11T07:35:37.990Z,3.27
2019-03-11T07:38:07.442Z,1.52
2019-03-11T07:40:36.928Z,2.22
2019-03-11T07:43:06.429Z,1.37
2019-03-11T07:45:35.873Z,1.80
2019-03-11T07:48:05.380Z,2.67
2019-03-11T07:50:34.846Z,4.50
2019-03-11T07:53:04.302Z,4.28
2019-03-11T07:55:33.809Z,2.45
2019-03-11T07:58:03.291Z,2.72
2019-03-11T08:00:32.787Z,4.12
2019-03-11T08:03:02.296Z,1.60
2019-03-11T08:05:31.781Z,2.40
2019-03-11T08:08:01.367Z,3.33
2019-03-11T08:10:30.912Z,2.25
2019-03-11T08:13:00.360Z,3.20
2019-03-11T08:15:29.810Z,2.08
2019-03-11T08:17:59.370Z,2.30
2019-03-11T08:20:28.841Z,3.60
2019-03-11T08:22:58.312Z,1.52
2019-03-11T08:25:27.853Z,2.98
2019-03-11T08:27:57.336Z,1.95
2019-03-11T08:30:26.846Z,4.83
2019-03-11T08:32:56.366Z,1.80
2019-03-11T08:35:25.966Z,2.52
2019-03-11T08:37:55.439Z,2.08
2019-03-11T08:40:24.959Z,2.08
2019-03-11T08:42:54.465Z,3.47
2019-03-11T08:45:26.284Z,0.98
2019-03-11T08:47:55.807Z,1.27
2019-03-11T08:50:25.336Z,1.27
2019-03-11T08:52:54.879Z,2.02
2019-03-11T08:55:24.445Z,2.72
2019-03-11T08:57:53.956Z,1.47
2019-03-11T09:00:23.512Z,3.83
2019-03-11T09:02:52.965Z,1.87
2019-03-11T09:05:23.586Z,1.55
2019-03-11T09:07:53.260Z,1.37
2019-03-11T09:10:22.703Z,1.50
2019-03-11T09:12:52.154Z,1.50
2019-03-11T09:15:22.026Z,2.05
2019-03-11T09:17:51.604Z,1.85
2019-03-11T09:20:21.393Z,3.10
2019-03-11T09:22:50.873Z,1.37
2019-03-11T09:25:20.480Z,1.82
2019-03-11T09:27:50.993Z,2.17
2019-03-11T09:30:21.022Z,1.10
2019-03-11T09:32:50.539Z,2.30
2019-03-11T09:35:20.096Z,1.37
2019-03-11T09:37:50.012Z,3.92
2019-03-11T09:40:19.567Z,1.30
2019-03-11T09:42:49.010Z,1.67
2019-03-11T09:45:18.647Z,2.30
2019-03-11T09:47:48.317Z,1.10
2019-03-11T09:50:17.869Z,1.30
2019-03-11T09:52:47.340Z,1.57
2019-03-11T09:55:16.836Z,1.95
2019-03-11T09:57:46.301Z,2.95
2019-03-11T10:00:18.351Z,1.55
2019-03-11T10:02:52.193Z,1.25
2019-03-11T10:05:20.611Z,3.50
2019-03-11T10:07:50.085Z,2.00
2019-03-11T10:10:19.658Z,1.65
2019-03-11T10:12:49.101Z,1.98
2019-03-11T10:15:18.976Z,1.80
2019-03-11T10:17:48.584Z,1.72
2019-03-11T10:20:18.447Z,1.80
2019-03-11T10:22:47.950Z,1.40
2019-03-11T10:25:17.533Z,0.80
2019-03-11T10:27:47.136Z,1.30
2019-03-11T10:30:17.848Z,2.00
2019-03-11T10:32:47.485Z,1.62
2019-03-11T10:35:33.087Z,1.52
2019-03-11T10:37:49.135Z,1.72
2019-03-11T10:40:19.970Z,1.92
2019-03-11T10:42:49.459Z,4.17
2019-03-11T10:45:30.309Z,1.75
2019-03-11T10:47:50.523Z,2.45
2019-03-11T10:50:20.139Z,1.22
2019-03-11T10:52:49.691Z,1.50
2019-03-11T10:55:19.198Z,1.92
2019-03-11T10:57:49.114Z,1.20
2019-03-11T11:00:22.064Z,2.95
2019-03-11T11:02:51.634Z,1.55
2019-03-11T11:05:21.674Z,1.12
2019-03-11T11:07:52.211Z,2.35
2019-03-11T11:10:21.877Z,1.62
2019-03-11T11:12:51.430Z,1.35
2019-03-11T11:15:21.984Z,1.17
2019-03-11T11:17:51.455Z,2.75
2019-03-11T11:20:21.233Z,1.15
2019-03-11T11:22:51.231Z,1.80
2019-03-11T11:25:21.061Z,1.50
2019-03-11T11:27:50.702Z,3.10
2019-03-11T11:30:21.774Z,3.05
2019-03-11T11:32:51.581Z,1.55
2019-03-11T11:35:21.656Z,1.55
2019-03-11T11:37:51.328Z,1.75
2019-03-11T11:40:22.579Z,1.12
2019-03-11T11:42:52.546Z,1.65
2019-03-11T11:45:22.384Z,1.30
2019-03-11T11:47:51.957Z,2.17
2019-03-11T11:50:21.922Z,2.95
2019-03-11T11:52:51.875Z,1.90
2019-03-11T11:55:21.749Z,1.10
2019-03-11T11:57:51.726Z,1.90
2019-03-11T12:00:23.964Z,1.25
2019-03-11T12:02:53.754Z,2.17
2019-03-11T12:05:23.622Z,3.02
2019-03-11T12:07:53.323Z,2.65
2019-03-11T12:10:23.953Z,2.22
2019-03-11T12:12:53.493Z,2.30
2019-03-11T12:15:23.216Z,2.50
2019-03-11T12:17:52.845Z,1.50
2019-03-11T12:20:23.463Z,1.65
2019-03-11T12:22:53.096Z,2.05
2019-03-11T12:25:22.709Z,1.60
2019-03-11T12:27:54.283Z,2.22
2019-03-11T12:30:25.489Z,3.08
2019-03-11T12:32:55.086Z,3.10
2019-03-11T12:35:24.686Z,4.22
2019-03-11T12:37:54.462Z,2.08
2019-03-11T12:40:24.422Z,2.30
2019-03-11T12:42:53.938Z,3.10
2019-03-11T12:45:23.496Z,4.92
2019-03-11T12:47:53.067Z,3.02
2019-03-11T12:50:22.911Z,2.60
2019-03-11T12:52:52.513Z,1.87
2019-03-11T12:55:22.077Z,2.05
2019-03-11T12:57:51.708Z,2.58
2019-03-11T13:00:21.316Z,2.25
2019-03-11T13:02:51.174Z,1.62
2019-03-11T13:05:20.788Z,3.62
2019-03-11T13:07:50.412Z,1.95
2019-03-11T13:10:20.826Z,3.37
2019-03-11T13:12:50.849Z,2.85
2019-03-11T13:15:22.949Z,2.08
2019-03-11T13:17:52.538Z,1.90
2019-03-11T13:20:28.450Z,1.75
2019-03-11T13:22:58.036Z,3.05
2019-03-11T13:25:27.636Z,2.62
2019-03-11T13:27:57.092Z,1.72
2019-03-11T13:30:27.208Z,2.22
2019-03-11T13:32:56.896Z,2.47
2019-03-11T13:35:26.358Z,2.77
2019-03-11T13:37:56.002Z,1.30
2019-03-11T13:40:25.799Z,2.98
2019-03-11T13:42:55.329Z,4.62
2019-03-11T13:45:27.082Z,3.35
2019-03-11T13:47:56.544Z,1.60
2019-03-11T13:50:26.080Z,3.33
2019-03-11T13:52:55.545Z,2.80
2019-03-11T13:55:24.995Z,2.92
2019-03-11T13:57:54.599Z,1.98
2019-03-11T14:00:24.067Z,3.17
2019-03-11T14:02:53.494Z,1.62
2019-03-11T14:05:23.049Z,2.15
2019-03-11T14:07:52.546Z,1.67
2019-03-11T14:10:22.018Z,1.70
2019-03-11T14:12:51.533Z,1.70
2019-03-11T14:15:21.087Z,2.25
2019-03-11T14:17:50.522Z,3.50
2019-03-11T14:20:20.079Z,3.60
2019-03-11T14:22:49.527Z,1.32
2019-03-11T14:25:19.051Z,2.40
2019-03-11T14:27:48.560Z,2.05
2019-03-11T14:30:18.087Z,2.37
2019-03-11T14:32:47.534Z,1.52
2019-03-11T14:35:17.046Z,1.85
2019-03-11T14:37:46.532Z,3.52
2019-03-11T14:40:16.101Z,2.65
2019-03-11T14:42:45.682Z,1.65
2019-03-11T14:45:15.914Z,1.60
2019-03-11T14:47:45.389Z,1.52
2019-03-11T14:50:15.413Z,2.90
2019-03-11T14:52:44.875Z,2.05
2019-03-11T14:55:14.607Z,3.02
2019-03-11T14:57:44.366Z,2.55
2019-03-11T15:00:18.110Z,2.20
2019-03-11T15:02:46.807Z,3.52
2019-03-11T15:05:17.930Z,3.50
2019-03-11T15:07:47.662Z,1.47
2019-03-11T15:10:17.660Z,2.47
2019-03-11T15:12:47.517Z,2.52
2019-03-11T15:15:18.068Z,1.80
2019-03-11T15:17:47.579Z,4.22
2019-03-11T15:20:17.682Z,2.52
2019-03-11T15:22:47.303Z,1.95
2019-03-11T15:25:17.169Z,1.57
2019-03-11T15:27:47.031Z,2.10
2019-03-11T15:30:17.667Z,3.70
2019-03-11T15:32:50.479Z,2.10
2019-03-11T15:35:20.563Z,2.08
2019-03-11T15:37:50.298Z,2.58
2019-03-11T15:40:19.882Z,2.55
2019-03-11T15:42:49.571Z,2.52
2019-03-11T15:45:19.234Z,1.98
2019-03-11T15:47:48.868Z,4.05
2019-03-11T15:50:20.871Z,2.25
2019-03-11T15:52:50.413Z,2.77
2019-03-11T15:55:19.976Z,3.33
2019-03-11T15:57:49.668Z,1.27
2019-03-11T16:00:20.177Z,2.22
2019-03-11T16:02:50.815Z,2.62
2019-03-11T16:05:21.192Z,2.33
2019-03-11T16:07:50.989Z,3.80
2019-03-11T16:10:20.868Z,2.15
2019-03-11T16:12:50.448Z,1.82
2019-03-11T16:15:20.295Z,2.42
2019-03-11T16:17:50.334Z,3.65
2019-03-11T16:20:24.278Z,3.12
2019-03-11T16:22:53.842Z,1.72
2019-03-11T16:25:23.607Z,5.78
2019-03-11T16:27:53.198Z,3.35
2019-03-11T16:30:22.815Z,4.87
2019-03-11T16:32:59.496Z,4.28
2019-03-11T16:35:25.029Z,2.72
2019-03-11T16:37:55.043Z,6.65
2019-03-11T16:40:24.597Z,3.17
2019-03-11T16:42:54.287Z,6.08
2019-03-11T16:45:23.740Z,2.40
2019-03-11T16:47:53.331Z,3.00
2019-03-11T16:50:22.874Z,6.35
2019-03-11T16:52:52.470Z,2.92
2019-03-11T16:55:24.916Z,3.08
2019-03-11T16:57:54.384Z,2.90
2019-03-11T17:00:28.540Z,2.95
2019-03-11T17:02:58.094Z,2.75
2019-03-11T17:05:27.717Z,2.77
2019-03-11T17:07:57.298Z,2.50
2019-03-11T17:10:26.965Z,6.53
2019-03-11T17:12:56.489Z,3.42
2019-03-11T17:15:25.954Z,4.55
2019-03-11T17:17:55.519Z,4.58
2019-03-11T17:20:25.069Z,4.50
2019-03-11T17:22:54.583Z,7.97
2019-03-11T17:25:24.217Z,2.95
2019-03-11T17:27:53.742Z,4.00
2019-03-11T17:30:23.380Z,3.67
2019-03-11T17:32:52.925Z,4.78
2019-03-11T17:35:22.543Z,3.70
2019-03-11T17:37:52.044Z,6.35
2019-03-11T17:40:21.937Z,4.28
2019-03-11T17:42:51.553Z,8.10
2019-03-11T17:45:21.329Z,4.37
2019-03-11T17:47:51.215Z,3.95
2019-03-11T17:50:20.854Z,6.58
2019-03-11T17:52:50.908Z,3.33
2019-03-11T17:55:21.031Z,4.50
2019-03-11T17:57:50.969Z,5.37
2019-03-11T18:00:25.407Z,2.42
2019-03-11T18:02:55.151Z,4.40
2019-03-11T18:05:24.633Z,4.35
2019-03-11T18:07:54.130Z,4.97
2019-03-11T18:10:23.748Z,6.25
2019-03-11T18:12:53.254Z,6.97
2019-03-11T18:15:22.760Z,7.50
2019-03-11T18:17:52.287Z,6.53
2019-03-11T18:20:21.958Z,4.20
2019-03-11T18:22:51.625Z,4.30
2019-03-11T18:25:21.240Z,6.20
2019-03-11T18:27:50.736Z,6.65
2019-03-11T18:30:20.883Z,5.65
2019-03-11T18:32:51.103Z,8.43
2019-03-11T18:35:20.822Z,6.20
2019-03-11T18:37:50.629Z,12.47
2019-03-11T18:40:20.148Z,5.75
2019-03-11T18:42:49.746Z,4.97
2019-03-11T18:45:19.510Z,7.65
2019-03-11T18:47:49.429Z,6.70
2019-03-11T18:50:19.243Z,3.72
2019-03-11T18:52:48.920Z,5.65
2019-03-11T18:55:18.631Z,8.75
2019-03-11T18:57:48.785Z,12.55
2019-03-11T19:00:18.934Z,11.93
2019-03-11T19:02:48.693Z,7.10
2019-03-11T19:05:18.394Z,6.97
2019-03-11T19:07:48.114Z,7.80
2019-03-11T19:10:18.147Z,6.10
2019-03-11T19:12:48.006Z,12.45
2019-03-11T19:15:18.029Z,7.33
2019-03-11T19:17:47.832Z,6.42
2019-03-11T19:20:18.455Z,5.67
2019-03-11T19:22:48.432Z,5.25
2019-03-11T19:25:18.343Z,11.30
2019-03-11T19:27:48.403Z,9.80
2019-03-11T19:30:19.833Z,7.78
2019-03-11T19:32:51.320Z,7.35
2019-03-11T19:35:21.161Z,4.62
2019-03-11T19:37:51.040Z,6.17
2019-03-11T19:40:20.998Z,5.47
2019-03-11T19:42:50.635Z,4.83
2019-03-11T19:45:21.593Z,7.12
2019-03-11T19:47:51.350Z,11.53
2019-03-11T19:50:21.741Z,4.65
2019-03-11T19:52:58.353Z,5.50
2019-03-11T19:55:23.240Z,7.45
2019-03-11T19:57:52.800Z,3.37
2019-03-11T20:00:22.620Z,4.58
2019-03-11T20:02:52.442Z,4.45
2019-03-11T20:05:23.084Z,6.03
2019-03-11T20:07:52.888Z,6.42
2019-03-11T20:10:23.236Z,26.73
2019-03-11T20:12:53.011Z,4.12
2019-03-11T20:15:28.572Z,4.60
2019-03-11T20:18:03.120Z,4.53
2019-03-11T20:20:32.781Z,3.12
2019-03-11T20:23:03.302Z,3.62
2019-03-11T20:25:32.964Z,4.58
2019-03-11T20:28:02.508Z,4.37
2019-03-11T20:30:32.188Z,2.75
2019-03-11T20:33:03.902Z,4.30
2019-03-11T20:35:33.270Z,4.20
2019-03-11T20:38:05.307Z,3.83
2019-03-11T20:40:34.897Z,3.15
2019-03-11T20:43:06.530Z,5.35
2019-03-11T20:45:36.103Z,4.78
2019-03-11T20:48:05.736Z,3.40
2019-03-11T20:50:42.037Z,4.90
2019-03-11T20:53:06.732Z,5.20
2019-03-11T20:55:36.366Z,3.70
2019-03-11T20:58:06.074Z,8.18
2019-03-11T21:00:35.699Z,11.20
2019-03-11T21:03:05.309Z,36.25
2019-03-11T21:05:35.641Z,32.30
2019-03-11T21:08:05.882Z,24.18
2019-03-11T21:10:35.473Z,23.47
2019-03-11T21:13:05.322Z,20.75
2019-03-11T21:15:34.903Z,22.77
2019-03-11T21:18:04.579Z,12.55
2019-03-11T21:20:34.256Z,11.20
2019-03-11T21:23:03.842Z,18.25
2019-03-11T21:25:33.647Z,11.75
2019-03-11T21:28:03.263Z,8.73
2019-03-11T21:30:32.716Z,8.53
2019-03-11T21:33:02.493Z,9.58
2019-03-11T21:35:32.408Z,10.93
2019-03-11T21:38:01.935Z,10.45
2019-03-11T21:40:31.573Z,9.30
2019-03-11T21:43:01.174Z,15.78
2019-03-11T21:45:34.435Z,7.00
2019-03-11T21:48:01.974Z,9.60
2019-03-11T21:50:31.546Z,12.75
2019-03-11T21:53:01.221Z,5.30
2019-03-11T21:55:30.734Z,6.55
2019-03-11T21:58:12.246Z,7.37
2019-03-11T22:00:34.706Z,5.50
2019-03-11T22:03:02.687Z,6.90
2019-03-11T22:05:32.230Z,6.25
2019-03-11T22:08:01.716Z,8.03
2019-03-11T22:10:31.199Z,5.55
2019-03-11T22:13:00.744Z,8.03
2019-03-11T22:15:30.373Z,12.95
2019-03-11T22:17:59.872Z,7.37
2019-03-11T22:20:29.413Z,4.70
2019-03-11T22:22:59.164Z,7.12
2019-03-11T22:25:28.626Z,8.23
2019-03-11T22:27:58.197Z,5.10
2019-03-11T22:30:27.642Z,5.15
2019-03-11T22:32:57.187Z,7.08
2019-03-11T22:35:29.120Z,13.55
2019-03-11T22:37:57.967Z,10.40
2019-03-11T22:40:28.754Z,6.97
2019-03-11T22:42:58.398Z,5.80
2019-03-11T22:45:27.899Z,6.35
2019-03-11T22:47:57.376Z,9.13
2019-03-11T22:50:26.939Z,8.23
2019-03-11T22:52:56.817Z,6.05
2019-03-11T22:55:26.295Z,8.50
2019-03-11T22:57:57.239Z,3.80
2019-03-11T23:00:35.804Z,7.80
2019-03-11T23:03:06.964Z,9.28
2019-03-11T23:05:36.738Z,12.53
2019-03-11T23:08:06.411Z,6.28
2019-03-11T23:10:35.930Z,9.35
2019-03-11T23:13:05.451Z,7.00
2019-03-11T23:15:34.943Z,10.03
2019-03-11T23:18:04.460Z,8.48
2019-03-11T23:20:33.935Z,6.28
2019-03-11T23:23:03.401Z,8.20
2019-03-11T23:25:32.983Z,3.72
2019-03-11T23:28:02.504Z,11.65
2019-03-11T23:30:32.000Z,7.67
2019-03-11T23:33:01.583Z,5.08
2019-03-11T23:35:31.042Z,4.15
2019-03-11T23:38:00.629Z,8.53
2019-03-11T23:40:30.170Z,6.87
2019-03-11T23:42:59.683Z,5.33
2019-03-11T23:45:29.152Z,5.20
2019-03-11T23:47:58.716Z,4.78
2019-03-11T23:50:28.180Z,6.10
2019-03-11T23:52:57.701Z,6.90
2019-03-11T23:55:27.183Z,8.28
2019-03-11T23:57:56.686Z,4.22
